createdAt,value
2022-09-22T00:01:34.830Z,5.20
2022-09-22T00:04:08.091Z,3.90
2022-09-22T00:06:47.732Z,3.40
2022-09-22T00:09:18.804Z,3.00
2022-09-22T00:12:21.604Z,5.00
2022-09-22T00:14:54.230Z,4.70
2022-09-22T00:17:23.412Z,4.10
2022-09-22T00:19:52.470Z,3.40
2022-09-22T00:22:20.218Z,4.00
2022-09-22T00:24:48.531Z,5.40
2022-09-22T00:27:16.625Z,5.10
2022-09-22T00:29:45.023Z,6.00
2022-09-22T00:32:13.827Z,6.80
2022-09-22T00:34:41.616Z,5.00
2022-09-22T00:37:09.387Z,4.80
2022-09-22T00:39:37.308Z,4.50
2022-09-22T00:42:05.246Z,4.40
2022-09-22T00:44:41.523Z,3.90
2022-09-22T00:47:18.763Z,4.30
2022-09-22T00:49:52.772Z,4.30
2022-09-22T00:52:26.024Z,3.40
2022-09-22T00:54:57.980Z,4.50
2022-09-22T00:57:29.937Z,4.20
2022-09-22T00:59:58.362Z,8.40
2022-09-22T01:02:26.106Z,3.20
2022-09-22T01:04:54.098Z,8.00
2022-09-22T01:07:25.348Z,4.90
2022-09-22T01:09:53.517Z,5.20
2022-09-22T01:12:23.434Z,8.90
2022-09-22T01:15:22.679Z,7.00
2022-09-22T01:18:30.573Z,8.10
2022-09-22T01:21:27.671Z,4.10
2022-09-22T01:24:14.638Z,4.70
2022-09-22T01:27:34.347Z,4.20
2022-09-22T01:30:16.441Z,5.60
2022-09-22T01:33:13.137Z,4.70
2022-09-22T01:35:56.316Z,4.50
2022-09-22T01:38:30.344Z,5.10
2022-09-22T01:41:08.331Z,3.90
2022-09-22T01:43:49.385Z,5.10
2022-09-22T01:46:43.124Z,4.20
2022-09-22T01:49:15.682Z,5.00
2022-09-22T01:51:52.049Z,4.50
2022-09-22T01:54:26.962Z,4.60
2022-09-22T01:57:10.400Z,5.20
2022-09-22T01:59:40.996Z,5.10
2022-09-22T02:02:22.711Z,6.70
2022-09-22T02:04:57.093Z,7.20
2022-09-22T02:07:33.935Z,6.10
2022-09-22T02:10:09.004Z,11.40
2022-09-22T02:12:37.751Z,6.40
2022-09-22T02:15:30.508Z,6.30
2022-09-22T02:18:03.279Z,6.90
2022-09-22T02:20:31.072Z,4.20
2022-09-22T02:22:59.627Z,4.90
2022-09-22T02:25:28.854Z,9.50
2022-09-22T02:27:58.325Z,5.70
2022-09-22T02:30:27.997Z,5.10
2022-09-22T02:32:56.985Z,7.10
2022-09-22T02:35:30.250Z,7.00
2022-09-22T02:38:10.335Z,6.30
2022-09-22T02:41:00.567Z,5.00
2022-09-22T02:43:38.607Z,5.60
2022-09-22T02:46:16.414Z,4.70
2022-09-22T02:48:49.516Z,8.60
2022-09-22T02:51:18.816Z,8.60
2022-09-22T02:53:46.673Z,5.70
2022-09-22T02:56:14.504Z,6.80
2022-09-22T02:58:42.617Z,5.70
2022-09-22T03:01:11.263Z,7.20
2022-09-22T03:03:39.077Z,15.60
2022-09-22T03:06:06.952Z,9.30
2022-09-22T03:08:34.858Z,7.50
2022-09-22T03:11:03.530Z,7.50
2022-09-22T03:13:31.341Z,6.20
2022-09-22T03:15:59.146Z,8.80
2022-09-22T03:18:26.925Z,6.30
2022-09-22T03:20:55.558Z,7.20
2022-09-22T03:23:23.289Z,7.60
2022-09-22T03:25:51.038Z,7.60
2022-09-22T03:28:19.430Z,12.50
2022-09-22T03:30:47.774Z,6.90
2022-09-22T03:33:15.490Z,9.30
2022-09-22T03:35:43.807Z,8.70
2022-09-22T03:38:11.584Z,8.10
2022-09-22T03:40:39.662Z,7.80
2022-09-22T03:43:07.591Z,7.50
2022-09-22T03:45:35.982Z,6.50
2022-09-22T03:48:03.961Z,10.70
2022-09-22T03:50:34.651Z,11.60
2022-09-22T03:53:04.598Z,11.60
2022-09-22T03:55:32.489Z,9.90
2022-09-22T03:58:00.413Z,12.40
2022-09-22T04:00:28.726Z,10.90
2022-09-22T04:02:58.283Z,10.50
2022-09-22T04:05:26.039Z,10.70
2022-09-22T04:07:53.955Z,8.40
2022-09-22T04:10:22.519Z,9.10
2022-09-22T04:12:51.658Z,13.40
2022-09-22T04:15:25.001Z,9.50
2022-09-22T04:17:54.326Z,11.90
2022-09-22T04:20:22.219Z,11.40
2022-09-22T04:22:50.365Z,9.80
2022-09-22T04:25:18.314Z,9.70
2022-09-22T04:27:47.591Z,8.80
2022-09-22T04:30:15.839Z,9.70
2022-09-22T04:32:44.637Z,8.20
2022-09-22T04:35:12.445Z,8.10
2022-09-22T04:37:40.198Z,9.20
2022-09-22T04:40:08.789Z,12.80
2022-09-22T04:42:36.586Z,10.00
2022-09-22T04:45:33.967Z,10.80
2022-09-22T04:48:05.650Z,13.80
2022-09-22T04:50:33.426Z,16.70
2022-09-22T04:53:08.080Z,16.30
2022-09-22T04:55:36.239Z,13.10
2022-09-22T04:58:04.853Z,16.20
2022-09-22T05:00:32.732Z,20.40
2022-09-22T05:03:02.235Z,12.10
2022-09-22T05:05:30.127Z,11.70
2022-09-22T05:08:01.372Z,26.40
2022-09-22T05:10:32.400Z,12.40
2022-09-22T05:13:00.218Z,14.20
2022-09-22T05:15:28.051Z,11.20
2022-09-22T05:17:55.853Z,14.50
2022-09-22T05:20:24.187Z,8.60
2022-09-22T05:22:53.302Z,18.20
2022-09-22T05:25:21.473Z,10.70
2022-09-22T05:27:52.015Z,21.70
2022-09-22T05:30:23.504Z,22.80
2022-09-22T05:32:51.612Z,23.10
2022-09-22T05:35:25.502Z,30.50
2022-09-22T05:37:54.144Z,25.00
2022-09-22T05:40:26.326Z,19.80
2022-09-22T05:42:55.752Z,23.20
2022-09-22T05:45:24.160Z,25.80
2022-09-22T05:47:53.112Z,19.50
2022-09-22T05:50:23.923Z,14.50
2022-09-22T05:53:01.363Z,17.50
2022-09-22T05:55:29.233Z,12.30
2022-09-22T05:57:58.556Z,17.00
2022-09-22T06:00:28.383Z,18.10
2022-09-22T06:02:57.550Z,11.90
2022-09-22T06:05:26.247Z,13.40
2022-09-22T06:08:03.750Z,17.30
2022-09-22T06:10:33.532Z,12.90
2022-09-22T06:13:05.620Z,12.80
2022-09-22T06:15:36.426Z,12.20
2022-09-22T06:18:14.661Z,11.10
2022-09-22T06:20:43.244Z,9.50
2022-09-22T06:23:13.678Z,9.00
2022-09-22T06:25:43.597Z,9.40
2022-09-22T06:28:14.990Z,8.80
2022-09-22T06:30:42.929Z,9.10
2022-09-22T06:33:11.810Z,10.40
2022-09-22T06:35:43.390Z,8.80
2022-09-22T06:38:15.165Z,13.40
2022-09-22T06:40:44.587Z,13.90
2022-09-22T06:43:24.104Z,7.40
2022-09-22T06:45:53.473Z,17.10
2022-09-22T06:48:24.102Z,13.20
2022-09-22T06:50:54.519Z,9.20
2022-09-22T06:53:27.307Z,10.50
2022-09-22T06:58:25.262Z,9.30
2022-09-22T07:00:54.036Z,10.50
2022-09-22T07:03:24.498Z,11.80
2022-09-22T07:05:57.636Z,10.60
2022-09-22T07:08:26.195Z,11.60
2022-09-22T07:10:59.607Z,8.50
2022-09-22T07:13:48.477Z,9.70
2022-09-22T07:16:18.447Z,9.00
2022-09-22T07:18:48.939Z,12.20
2022-09-22T07:21:30.171Z,17.00
2022-09-22T07:23:58.380Z,13.80
2022-09-22T07:26:32.779Z,10.30
2022-09-22T07:29:04.134Z,10.20
2022-09-22T07:31:34.951Z,9.20
2022-09-22T07:34:03.614Z,10.60
2022-09-22T07:36:43.890Z,15.80
2022-09-22T07:39:17.199Z,17.40
2022-09-22T07:41:48.310Z,11.80
2022-09-22T07:44:35.648Z,14.30
2022-09-22T07:47:05.536Z,14.90
2022-09-22T07:49:33.546Z,10.90
2022-09-22T07:52:01.519Z,9.60
2022-09-22T07:54:29.361Z,9.30
2022-09-22T07:56:59.069Z,9.00
2022-09-22T07:59:27.707Z,9.20
2022-09-22T08:02:21.313Z,11.30
2022-09-22T08:04:49.608Z,8.40
2022-09-22T08:07:17.746Z,11.10
2022-09-22T08:09:45.479Z,10.10
2022-09-22T08:12:15.162Z,9.80
2022-09-22T08:14:45.355Z,7.40
2022-09-22T08:17:14.951Z,8.10
2022-09-22T08:19:42.892Z,10.80
2022-09-22T08:22:11.015Z,9.20
2022-09-22T08:24:38.766Z,9.90
2022-09-22T08:27:06.514Z,7.90
2022-09-22T08:29:36.683Z,9.00
2022-09-22T08:32:04.730Z,9.30
2022-09-22T08:34:32.659Z,10.30
2022-09-22T08:37:00.923Z,8.50
2022-09-22T08:39:28.867Z,9.80
2022-09-22T08:42:23.264Z,16.80
2022-09-22T08:44:52.691Z,11.80
2022-09-22T08:47:50.609Z,7.10
2022-09-22T08:50:45.567Z,8.00
2022-09-22T08:53:23.537Z,10.50
2022-09-22T08:56:05.656Z,8.20
2022-09-22T08:59:09.075Z,7.80
2022-09-22T09:01:43.195Z,5.30
2022-09-22T09:04:58.178Z,5.90
2022-09-22T09:07:58.984Z,7.70
2022-09-22T09:10:46.329Z,6.50
2022-09-22T09:13:40.782Z,6.00
2022-09-22T09:16:21.006Z,11.00
2022-09-22T09:19:00.994Z,8.10
2022-09-22T09:21:33.910Z,7.80
2022-09-22T09:27:07.011Z,8.90
2022-09-22T09:29:44.699Z,18.10
2022-09-22T09:32:22.756Z,11.70
2022-09-22T09:34:55.735Z,12.00
2022-09-22T09:37:25.629Z,8.60
2022-09-22T09:40:02.949Z,3.20
2022-09-22T09:42:37.961Z,4.70
2022-09-22T09:45:07.170Z,3.70
2022-09-22T09:48:03.197Z,4.50
2022-09-22T09:50:32.477Z,3.10
2022-09-22T09:53:00.928Z,13.00
2022-09-22T09:55:29.680Z,7.60
2022-09-22T09:58:32.815Z,7.20
2022-09-22T10:01:07.289Z,4.50
2022-09-22T10:03:42.488Z,3.40
2022-09-22T10:06:12.005Z,3.60
2022-09-22T10:08:49.866Z,2.80
2022-09-22T10:11:31.596Z,15.10
2022-09-22T10:14:00.863Z,5.20
2022-09-22T10:16:31.082Z,5.40
2022-09-22T10:19:21.302Z,5.20
2022-09-22T10:21:49.980Z,3.50
2022-09-22T10:24:32.080Z,6.00
2022-09-22T10:27:03.970Z,2.20
2022-09-22T10:29:35.698Z,4.20
2022-09-22T10:32:15.312Z,7.30
2022-09-22T10:34:51.779Z,3.60
2022-09-22T10:37:26.487Z,4.30
2022-09-22T10:40:00.591Z,3.00
2022-09-22T10:42:45.663Z,3.50
2022-09-22T10:45:20.433Z,4.30
2022-09-22T10:50:57.960Z,3.40
2022-09-22T10:53:58.156Z,3.70
2022-09-22T10:56:46.880Z,2.30
2022-09-22T10:59:47.961Z,2.00
2022-09-22T11:02:48.212Z,1.40
2022-09-22T11:06:14.009Z,2.00
2022-09-22T11:09:20.798Z,10.50
2022-09-22T11:12:18.075Z,1.70
2022-09-22T11:15:18.393Z,2.40
2022-09-22T11:17:58.781Z,0.60
2022-09-22T11:20:34.568Z,2.20
2022-09-22T11:23:25.355Z,1.10
2022-09-22T11:26:15.645Z,1.60
2022-09-22T11:29:09.148Z,2.60
2022-09-22T11:31:49.075Z,2.20
2022-09-22T11:34:47.044Z,1.20
2022-09-22T11:37:40.427Z,1.10
2022-09-22T11:40:27.649Z,1.80
2022-09-22T11:43:09.499Z,0.90
2022-09-22T11:45:56.212Z,17.80
2022-09-22T11:48:59.367Z,3.40
2022-09-22T11:51:46.199Z,1.90
2022-09-22T11:54:33.277Z,2.10
2022-09-22T11:57:09.888Z,1.10
2022-09-22T12:03:03.552Z,13.80
2022-09-22T12:05:50.039Z,6.90
2022-09-22T12:08:23.739Z,5.70
2022-09-22T12:10:52.992Z,2.50
2022-09-22T12:13:28.369Z,3.80
2022-09-22T12:16:07.269Z,2.50
2022-09-22T12:19:01.443Z,1.90
2022-09-22T12:24:04.167Z,3.20
2022-09-22T12:26:34.173Z,1.00
2022-09-22T12:29:25.410Z,1.00
2022-09-22T12:31:58.820Z,2.10
2022-09-22T12:34:34.575Z,1.10
2022-09-22T12:37:14.862Z,4.00
2022-09-22T12:39:48.751Z,1.90
2022-09-22T12:42:39.555Z,1.70
2022-09-22T12:45:25.810Z,2.80
2022-09-22T12:47:57.753Z,4.10
2022-09-22T12:50:33.234Z,0.70
2022-09-22T12:53:04.671Z,2.80
2022-09-22T12:55:40.628Z,2.60
2022-09-22T12:58:20.446Z,2.40
2022-09-22T13:00:53.919Z,0.90
2022-09-22T13:03:26.484Z,3.30
2022-09-22T13:06:01.372Z,2.50
2022-09-22T13:08:35.830Z,1.10
2022-09-22T13:11:06.289Z,2.50
2022-09-22T13:13:39.558Z,1.90
2022-09-22T13:16:50.026Z,1.50
2022-09-22T13:19:17.904Z,1.20
2022-09-22T13:21:47.707Z,0.80
2022-09-22T13:24:23.666Z,0.80
2022-09-22T13:27:04.844Z,1.80
2022-09-22T13:29:32.953Z,2.50
2022-09-22T13:32:18.542Z,2.40
2022-09-22T13:34:48.524Z,1.10
2022-09-22T13:37:23.974Z,1.60
2022-09-22T13:39:55.931Z,3.30
2022-09-22T13:42:32.046Z,4.70
2022-09-22T13:45:07.950Z,1.50
2022-09-22T13:47:36.924Z,1.30
2022-09-22T13:50:13.015Z,2.00
2022-09-22T13:52:41.619Z,0.70
2022-09-22T13:55:48.019Z,0.70
2022-09-22T13:58:35.976Z,3.30
2022-09-22T14:01:13.879Z,1.00
2022-09-22T14:03:43.856Z,2.70
2022-09-22T14:06:24.565Z,0.60
2022-09-22T14:08:53.763Z,0.70
2022-09-22T14:11:24.787Z,2.00
2022-09-22T14:14:00.224Z,4.40
2022-09-22T14:16:46.388Z,0.80
2022-09-22T14:19:17.362Z,5.60
2022-09-22T14:21:51.315Z,2.90
2022-09-22T14:24:19.994Z,1.10
2022-09-22T14:27:04.011Z,4.60
2022-09-22T14:32:24.909Z,4.10
2022-09-22T14:35:00.334Z,0.60
2022-09-22T14:37:40.891Z,1.30
2022-09-22T14:40:21.192Z,3.40
2022-09-22T14:43:03.771Z,2.00
2022-09-22T14:45:32.979Z,1.80
2022-09-22T14:48:13.958Z,2.40
2022-09-22T14:50:47.878Z,0.40
2022-09-22T14:53:23.095Z,0.70
2022-09-22T14:55:56.063Z,2.60
2022-09-22T14:58:28.101Z,1.10
2022-09-22T15:01:26.063Z,1.40
2022-09-22T15:04:04.937Z,3.10
2022-09-22T15:06:37.279Z,5.50
2022-09-22T15:09:13.420Z,1.00
2022-09-22T15:12:02.502Z,1.40
2022-09-22T15:14:57.011Z,4.50
2022-09-22T15:18:02.477Z,7.00
2022-09-22T15:20:42.895Z,4.10
2022-09-22T15:23:27.618Z,1.90
2022-09-22T15:25:56.308Z,1.90
2022-09-22T15:28:27.209Z,1.90
2022-09-22T15:30:58.759Z,0.60
2022-09-22T15:33:27.106Z,2.40
2022-09-22T15:36:01.788Z,1.60
2022-09-22T15:38:32.879Z,4.10
2022-09-22T15:41:02.033Z,2.00
2022-09-22T15:43:33.690Z,1.10
2022-09-22T15:46:04.995Z,2.00
2022-09-22T15:48:37.704Z,3.30
2022-09-22T15:51:12.973Z,3.40
2022-09-22T15:53:41.836Z,2.00
2022-09-22T15:56:18.617Z,2.20
2022-09-22T15:58:49.813Z,5.00
2022-09-22T16:01:18.370Z,1.40
2022-09-22T16:03:46.292Z,3.40
2022-09-22T16:06:18.233Z,3.40
2022-09-22T16:08:48.304Z,6.90
2022-09-22T16:11:23.407Z,5.70
2022-09-22T16:13:51.603Z,3.00
2022-09-22T16:16:19.766Z,1.60
2022-09-22T16:18:47.676Z,2.50
2022-09-22T16:21:20.048Z,3.00
2022-09-22T16:23:49.393Z,4.70
2022-09-22T16:26:17.643Z,2.80
2022-09-22T16:28:45.794Z,2.80
2022-09-22T16:31:14.492Z,2.70
2022-09-22T16:33:44.092Z,3.30
2022-09-22T16:36:13.409Z,8.30
2022-09-22T16:38:41.876Z,10.80
2022-09-22T16:41:26.064Z,11.90
2022-09-22T16:43:55.877Z,13.00
2022-09-22T16:46:28.700Z,23.50
2022-09-22T16:49:00.761Z,23.90
2022-09-22T16:51:31.203Z,28.00
2022-09-22T16:54:03.226Z,23.70
2022-09-22T16:56:33.625Z,27.10
2022-09-22T16:59:02.986Z,73.20
2022-09-22T17:01:38.311Z,62.10
2022-09-22T17:04:10.612Z,52.60
2022-09-22T17:06:41.124Z,26.10
2022-09-22T17:09:11.000Z,16.30
2022-09-22T17:11:50.093Z,18.10
2022-09-22T17:14:25.604Z,12.40
2022-09-22T17:16:56.794Z,19.00
2022-09-22T17:19:27.991Z,14.10
2022-09-22T17:21:56.775Z,22.60
2022-09-22T17:24:27.054Z,32.10
2022-09-22T17:26:57.363Z,25.40
2022-09-22T17:29:30.045Z,29.80
2022-09-22T17:32:02.910Z,40.20
2022-09-22T17:34:37.046Z,17.30
2022-09-22T17:37:05.714Z,8.90
2022-09-22T17:39:34.028Z,9.20
2022-09-22T17:42:03.037Z,10.70
2022-09-22T17:44:37.421Z,12.30
2022-09-22T17:47:26.156Z,23.50
2022-09-22T17:50:12.975Z,14.90
2022-09-22T17:53:00.094Z,14.60
2022-09-22T17:55:28.593Z,23.10
2022-09-22T17:57:57.662Z,32.10
2022-09-22T18:00:26.462Z,33.50
2022-09-22T18:02:55.328Z,40.90
2022-09-22T18:05:27.021Z,41.40
2022-09-22T18:07:58.099Z,39.60
2022-09-22T18:10:31.275Z,45.90
2022-09-22T18:13:01.848Z,43.40
2022-09-22T18:15:31.485Z,40.30
2022-09-22T18:18:00.702Z,39.40
2022-09-22T18:20:28.839Z,43.80
2022-09-22T18:22:58.172Z,42.70
2022-09-22T18:25:28.522Z,46.30
2022-09-22T18:27:57.215Z,39.10
2022-09-22T18:30:27.155Z,43.50
2022-09-22T18:32:56.417Z,43.30
2022-09-22T18:35:28.057Z,33.60
2022-09-22T18:37:56.780Z,30.50
2022-09-22T18:40:24.838Z,31.00
2022-09-22T18:42:54.779Z,35.30
2022-09-22T18:45:23.509Z,47.80
2022-09-22T18:47:52.378Z,44.10
2022-09-22T18:50:20.789Z,31.00
2022-09-22T18:52:56.969Z,26.30
2022-09-22T18:55:24.909Z,33.80
2022-09-22T18:57:54.303Z,55.60
2022-09-22T19:00:22.286Z,56.00
2022-09-22T19:02:52.564Z,62.90
2022-09-22T19:05:21.891Z,56.80
2022-09-22T19:07:51.199Z,50.20
2022-09-22T19:10:23.703Z,52.30
2022-09-22T19:12:52.137Z,46.20
2022-09-22T19:15:23.830Z,42.70
2022-09-22T19:17:53.700Z,42.30
2022-09-22T19:20:30.119Z,39.30
2022-09-22T19:23:11.698Z,32.60
2022-09-22T19:25:46.461Z,29.10
2022-09-22T19:28:15.936Z,32.20
2022-09-22T19:30:46.747Z,23.70
2022-09-22T19:33:15.542Z,28.20
2022-09-22T19:35:44.330Z,29.50
2022-09-22T19:38:13.207Z,32.90
2022-09-22T19:40:41.789Z,35.20
2022-09-22T19:43:11.267Z,40.10
2022-09-22T19:45:42.572Z,33.30
2022-09-22T19:48:12.474Z,37.80
2022-09-22T19:50:42.344Z,31.50
2022-09-22T19:53:10.906Z,34.00
2022-09-22T19:55:40.134Z,39.60
2022-09-22T19:58:08.505Z,33.80
2022-09-22T20:00:39.090Z,35.10
2022-09-22T20:03:08.315Z,37.30
2022-09-22T20:05:40.481Z,36.00
2022-09-22T20:08:21.881Z,33.40
2022-09-22T20:11:16.314Z,35.30
2022-09-22T20:14:04.406Z,35.20
2022-09-22T20:16:34.557Z,27.80
2022-09-22T20:19:03.374Z,28.60
2022-09-22T20:21:35.560Z,23.90
2022-09-22T20:24:06.871Z,16.10
2022-09-22T20:26:37.124Z,20.80
2022-09-22T20:29:09.920Z,19.30
2022-09-22T20:31:39.932Z,14.90
2022-09-22T20:34:12.982Z,14.80
2022-09-22T20:36:43.402Z,16.20
2022-09-22T20:39:15.628Z,13.20
2022-09-22T20:41:44.760Z,14.60
2022-09-22T20:44:15.042Z,15.40
2022-09-22T20:46:44.617Z,14.10
2022-09-22T20:49:13.861Z,9.30
2022-09-22T20:51:43.869Z,17.10
2022-09-22T20:54:16.223Z,16.80
2022-09-22T20:56:45.446Z,13.20
2022-09-22T20:59:16.015Z,14.10
2022-09-22T21:01:44.187Z,13.00
2022-09-22T21:04:16.129Z,21.40
2022-09-22T21:06:47.010Z,13.70
2022-09-22T21:09:33.734Z,14.60
2022-09-22T21:12:03.095Z,14.60
2022-09-22T21:14:33.793Z,19.20
2022-09-22T21:17:08.827Z,20.70
2022-09-22T21:19:38.843Z,17.50
2022-09-22T21:22:08.168Z,19.80
2022-09-22T21:24:44.932Z,18.70
2022-09-22T21:27:14.592Z,30.50
2022-09-22T21:29:43.380Z,27.10
2022-09-22T21:32:11.971Z,28.30
2022-09-22T21:34:41.993Z,26.90
2022-09-22T21:37:10.176Z,29.20
2022-09-22T21:39:38.141Z,23.60
2022-09-22T21:42:06.261Z,35.80
2022-09-22T21:44:34.447Z,27.60
2022-09-22T21:47:02.497Z,29.00
2022-09-22T21:49:30.541Z,26.90
2022-09-22T21:52:01.273Z,27.30
2022-09-22T21:54:31.783Z,22.70
2022-09-22T21:57:02.818Z,22.50
2022-09-22T21:59:31.362Z,21.30
2022-09-22T22:01:59.826Z,23.40
2022-09-22T22:04:28.050Z,23.50
2022-09-22T22:06:56.166Z,22.00
2022-09-22T22:09:26.148Z,20.20
2022-09-22T22:11:56.989Z,18.60
2022-09-22T22:14:32.755Z,24.00
2022-09-22T22:17:02.486Z,17.30
2022-09-22T22:19:30.424Z,17.40
2022-09-22T22:21:58.270Z,18.20
2022-09-22T22:24:29.564Z,15.80
2022-09-22T22:27:02.488Z,17.20
2022-09-22T22:29:35.125Z,18.20
2022-09-22T22:32:09.377Z,14.10
2022-09-22T22:35:07.574Z,14.40
2022-09-22T22:37:35.494Z,13.90
2022-09-22T22:40:04.202Z,14.50
2022-09-22T22:42:32.644Z,13.60
2022-09-22T22:45:00.914Z,14.00
2022-09-22T22:47:28.867Z,12.70
2022-09-22T22:49:57.044Z,15.90
2022-09-22T22:52:24.869Z,12.70
2022-09-22T22:54:53.010Z,12.20
2022-09-22T22:57:21.316Z,13.30
2022-09-22T22:59:49.125Z,16.40
2022-09-22T23:02:17.239Z,14.20
2022-09-22T23:04:44.938Z,11.50
2022-09-22T23:07:12.717Z,12.20
2022-09-22T23:09:41.696Z,12.90
2022-09-22T23:12:10.722Z,13.90
2022-09-22T23:14:38.419Z,13.60
2022-09-22T23:17:06.532Z,11.40
2022-09-22T23:19:34.594Z,10.20
2022-09-22T23:22:02.991Z,9.50
2022-09-22T23:24:33.932Z,15.80
2022-09-22T23:27:02.753Z,10.20
2022-09-22T23:29:30.862Z,9.20
2022-09-22T23:31:58.662Z,10.30
2022-09-22T23:34:27.602Z,14.20
2022-09-22T23:36:56.358Z,8.70
2022-09-22T23:39:24.278Z,10.70
2022-09-22T23:41:52.445Z,10.10
2022-09-22T23:44:20.751Z,8.80
2022-09-22T23:46:50.406Z,8.90
2022-09-22T23:49:18.477Z,11.90
2022-09-22T23:51:46.323Z,8.50
2022-09-22T23:54:14.335Z,8.90
2022-09-22T23:56:43.529Z,9.60
2022-09-22T23:59:11.310Z,9.90
